Time;durP1;ratioP1;P1;durP2;ratioP2;P2;SDS_P1;SDS_P2;PMS_P1;PMS_P2;Temp;Humidity;BMP_temperature;BMP_pressure;BME280_temperature;BME280_humidity;BME280_pressure;Samples;Min_cycle;Max_cycle;Signal;HPM_P1;HPM_P2
2023/10/04 00:00:21;;;;;;;15.07;6.00;;;;;;;18.65;55.92;99526.78;4439847;32;34536;-85
2023/10/04 00:02:54;;;;;;;12.52;5.85;;;;;;;18.65;55.84;99521.53;4460404;32;33655;-87
2023/10/04 00:05:23;;;;;;;12.57;5.62;;;;;;;18.60;55.80;99518.09;4454277;32;33687;-86
2023/10/04 00:07:52;;;;;;;14.80;6.32;;;;;;;18.61;55.82;99519.84;4444586;32;33881;-84
2023/10/04 00:10:23;;;;;;;11.15;5.60;;;;;;;18.67;55.66;99517.97;4449968;32;34776;-85
2023/10/04 00:12:52;;;;;;;14.87;6.20;;;;;;;18.66;55.73;99518.00;4447553;32;33689;-84
2023/10/04 00:15:22;;;;;;;10.43;5.70;;;;;;;18.59;55.99;99519.00;4450252;32;33930;-85
2023/10/04 00:17:52;;;;;;;11.82;5.53;;;;;;;18.68;55.72;99516.25;4450201;32;35229;-85
2023/10/04 00:20:22;;;;;;;11.65;5.18;;;;;;;18.59;56.12;99524.25;4460431;32;34080;-88
2023/10/04 00:22:50;;;;;;;11.45;5.70;;;;;;;18.61;56.18;99527.72;4448275;32;34158;-88
2023/10/04 00:25:21;;;;;;;15.95;5.72;;;;;;;18.67;56.01;99525.00;4453005;32;33788;-85
2023/10/04 00:27:52;;;;;;;12.55;5.37;;;;;;;18.62;56.30;99521.56;4461784;32;34081;-86
2023/10/04 00:30:19;;;;;;;13.40;6.32;;;;;;;18.62;56.39;99529.47;4459696;32;32574;-88
2023/10/04 00:32:47;;;;;;;14.32;6.12;;;;;;;18.60;56.90;99528.59;4460242;32;33596;-85
2023/10/04 00:35:19;;;;;;;11.88;5.22;;;;;;;18.66;56.80;99533.78;4453899;32;33553;-86
2023/10/04 00:37:55;;;;;;;11.88;6.18;;;;;;;18.51;57.25;99542.72;4445834;32;34286;-86
2023/10/04 00:40:27;;;;;;;13.75;5.37;;;;;;;18.52;57.53;99543.59;4443674;32;33726;-86
2023/10/04 00:42:57;;;;;;;15.93;6.20;;;;;;;18.37;58.06;99545.56;4455715;32;32055;-87
2023/10/04 00:45:25;;;;;;;13.93;6.12;;;;;;;18.29;58.55;99550.00;4452373;32;33569;-85
2023/10/04 00:47:57;;;;;;;11.50;5.87;;;;;;;18.43;58.06;99550.72;4450634;32;35068;-86
2023/10/04 00:50:29;;;;;;;12.88;5.37;;;;;;;18.44;58.06;99548.94;4440287;32;34359;-86
2023/10/04 00:53:08;;;;;;;13.48;5.65;;;;;;;18.43;57.78;99553.34;4443176;32;32928;-86
2023/10/04 00:55:40;;;;;;;12.70;5.55;;;;;;;18.51;57.60;99557.63;4444248;32;34538;-84
2023/10/04 00:58:09;;;;;;;12.57;6.28;;;;;;;18.50;57.33;99558.50;4459058;32;33649;-85
2023/10/04 01:00:41;;;;;;;12.23;5.35;;;;;;;18.51;57.43;99560.25;4455427;32;33905;-86
2023/10/04 01:03:09;;;;;;;12.80;5.65;;;;;;;18.36;57.99;99554.28;4447644;32;34245;-87
2023/10/04 01:05:41;;;;;;;16.67;6.32;;;;;;;18.19;58.56;99557.13;4442886;32;33719;-84
2023/10/04 01:08:09;;;;;;;11.25;6.07;;;;;;;18.10;59.16;99561.63;4443543;32;33892;-88
2023/10/04 01:10:38;;;;;;;15.07;6.45;;;;;;;18.23;58.89;99555.34;4455058;32;33889;-85
2023/10/04 01:13:06;;;;;;;12.37;5.60;;;;;;;18.31;58.56;99543.00;4453506;32;33749;-85
2023/10/04 01:15:36;;;;;;;15.45;6.32;;;;;;;18.13;59.57;99548.47;4448743;32;33855;-85
2023/10/04 01:18:07;;;;;;;11.32;5.55;;;;;;;18.15;59.80;99546.69;4453558;32;33623;-84
2023/10/04 01:20:37;;;;;;;13.82;6.22;;;;;;;18.17;59.72;99551.03;4444313;32;33493;-87
2023/10/04 01:23:06;;;;;;;13.48;5.85;;;;;;;18.14;59.89;99547.56;4454676;32;33068;-84
2023/10/04 01:25:35;;;;;;;13.65;6.60;;;;;;;18.13;60.23;99553.72;4456407;32;34821;-86
2023/10/04 01:28:48;;;;;;;13.80;6.62;;;;;;;17.98;60.64;99555.62;4438853;32;36595;-86
2023/10/04 01:30:59;;;;;;;15.13;6.90;;;;;;;18.13;60.45;99551.09;4436601;32;33623;-89
2023/10/04 01:33:30;;;;;;;17.27;6.87;;;;;;;17.96;60.82;99562.66;4439374;32;33146;-85
2023/10/04 01:35:58;;;;;;;18.52;7.32;;;;;;;18.16;60.19;99565.03;4442125;32;34073;-87
2023/10/04 01:38:27;;;;;;;15.23;7.07;;;;;;;18.09;60.63;99554.62;4449887;32;35083;-88
2023/10/04 01:40:56;;;;;;;17.87;7.55;;;;;;;18.05;61.00;99566.06;4458542;32;33334;-87
2023/10/04 01:43:25;;;;;;;15.35;6.78;;;;;;;18.05;60.92;99563.44;4458672;32;32950;-86
2023/10/04 01:45:57;;;;;;;13.62;7.37;;;;;;;18.33;59.86;99554.31;4456655;32;33989;-87
2023/10/04 01:48:27;;;;;;;14.05;7.70;;;;;;;18.27;60.33;99569.31;4445296;32;33719;-83
2023/10/04 01:50:54;;;;;;;14.13;7.25;;;;;;;18.02;61.76;99563.47;4442273;32;34518;-86
2023/10/04 01:53:26;;;;;;;16.30;8.02;;;;;;;18.07;61.72;99573.03;4456887;32;34360;-85
2023/10/04 01:55:55;;;;;;;16.30;7.53;;;;;;;17.97;62.60;99584.50;4455572;32;32442;-85
2023/10/04 01:58:25;;;;;;;13.52;8.25;;;;;;;17.94;63.25;99598.50;4456777;32;33839;-85
2023/10/04 02:00:55;;;;;;;13.13;7.90;;;;;;;18.04;63.42;99587.94;4458177;32;34076;-86
2023/10/04 02:03:24;;;;;;;15.43;8.05;;;;;;;17.80;64.91;99600.38;4440225;32;34060;-86
2023/10/04 02:05:59;;;;;;;21.10;8.52;;;;;;;17.89;64.90;99596.84;4458558;32;33916;-87
2023/10/04 02:08:28;;;;;;;24.92;8.48;;;;;;;17.58;66.43;99590.94;4458038;32;34153;-85
2023/10/04 02:10:57;;;;;;;14.48;6.68;;;;;;;17.66;66.00;99590.03;4456659;32;33607;-84
2023/10/04 02:13:27;;;;;;;12.82;5.50;;;;;;;17.73;64.86;99601.34;4446569;32;33543;-86
2023/10/04 02:15:55;;;;;;;15.10;5.93;;;;;;;17.73;63.96;99603.94;4458465;32;35006;-85
2023/10/04 02:18:25;;;;;;;18.05;5.12;;;;;;;17.68;63.78;99597.84;4460213;32;34954;-85
2023/10/04 02:20:53;;;;;;;13.18;4.95;;;;;;;17.98;62.73;99594.97;4460973;32;34319;-86
2023/10/04 02:23:23;;;;;;;13.85;4.43;;;;;;;17.99;62.51;99586.25;4444246;32;32126;-87
2023/10/04 02:25:51;;;;;;;13.60;4.72;;;;;;;18.24;61.40;99599.06;4443587;32;34251;-87
2023/10/04 02:28:22;;;;;;;11.20;3.97;;;;;;;18.37;60.87;99600.69;4459286;32;33562;-86
2023/10/04 02:30:55;;;;;;;12.02;4.68;;;;;;;18.30;61.13;99598.16;4437652;32;33235;-87
2023/10/04 02:33:31;;;;;;;14.18;4.28;;;;;;;18.23;61.67;99597.34;4446671;32;33482;-88
2023/10/04 02:36:06;;;;;;;14.82;4.05;;;;;;;18.49;61.15;99612.78;4452877;32;33851;-88
2023/10/04 02:38:36;;;;;;;7.77;4.03;;;;;;;18.54;61.16;99625.84;4456560;32;35040;-87
2023/10/04 02:41:05;;;;;;;12.95;3.62;;;;;;;18.46;61.42;99621.56;4455411;32;34254;-87
2023/10/04 02:43:33;;;;;;;9.55;3.83;;;;;;;18.48;61.52;99629.41;4454491;32;34430;-88
2023/10/04 02:46:01;;;;;;;11.90;4.20;;;;;;;18.55;61.35;99631.06;4459350;32;33660;-87
2023/10/04 02:48:31;;;;;;;11.15;3.55;;;;;;;18.37;62.07;99637.44;4457550;32;34654;-88
2023/10/04 02:51:01;;;;;;;14.60;3.87;;;;;;;18.28;62.40;99652.41;4454803;32;34611;-87
2023/10/04 02:53:29;;;;;;;11.80;3.90;;;;;;;18.25;62.54;99653.28;4446228;32;32355;-89
2023/10/04 02:55:58;;;;;;;17.42;3.97;;;;;;;18.24;62.67;99656.81;4457569;32;34637;-86
2023/10/04 02:58:26;;;;;;;9.57;3.42;;;;;;;18.14;63.01;99653.41;4459064;32;33773;-87
2023/10/04 03:00:54;;;;;;;7.80;3.08;;;;;;;18.34;62.11;99647.09;4459832;32;33399;-87
2023/10/04 03:03:25;;;;;;;11.25;2.87;;;;;;;18.32;62.21;99662.84;4456837;32;32950;-88
2023/10/04 03:05:54;;;;;;;7.95;2.45;;;;;;;18.06;62.75;99670.09;4458399;32;35362;-89
2023/10/04 03:08:23;;;;;;;9.73;2.47;;;;;;;18.33;61.73;99648.81;4446540;32;33733;-88
2023/10/04 03:10:55;;;;;;;8.05;2.37;;;;;;;18.06;62.38;99662.22;4443786;32;33173;-87
2023/10/04 03:13:24;;;;;;;11.68;2.47;;;;;;;18.20;61.94;99674.34;4459142;32;33820;-87
2023/10/04 03:15:53;;;;;;;6.40;2.30;;;;;;;18.19;61.55;99664.72;4458711;32;34509;-88
2023/10/04 03:18:25;;;;;;;7.15;2.40;;;;;;;18.24;61.64;99683.06;4442583;32;34007;-86
2023/10/04 03:20:56;;;;;;;7.87;2.00;;;;;;;18.31;61.60;99689.97;4440320;32;33903;-86
2023/10/04 03:23:25;;;;;;;8.52;2.40;;;;;;;18.36;61.41;99689.94;4457522;32;33801;-87
2023/10/04 03:25:54;;;;;;;7.43;2.08;;;;;;;18.51;60.66;99691.53;4459486;32;33702;-87
2023/10/04 03:28:26;;;;;;;6.10;2.30;;;;;;;18.31;61.20;99689.97;4445631;32;33716;-88
2023/10/04 03:30:54;;;;;;;6.78;2.08;;;;;;;18.33;61.18;99701.31;4458067;32;33808;-87
2023/10/04 03:33:22;;;;;;;6.87;1.95;;;;;;;18.23;61.37;99697.06;4460759;32;33638;-87
2023/10/04 03:35:53;;;;;;;6.35;1.87;;;;;;;18.28;61.33;99702.25;4445988;32;33141;-87
2023/10/04 03:38:21;;;;;;;6.25;2.12;;;;;;;18.07;62.20;99698.06;4458608;32;34660;-88
2023/10/04 03:40:49;;;;;;;8.00;2.35;;;;;;;18.19;61.51;99706.72;4456126;32;33642;-88
2023/10/04 03:43:16;;;;;;;5.97;1.77;;;;;;;18.43;60.42;99705.59;4458352;32;33097;-88
2023/10/04 03:45:44;;;;;;;6.12;1.98;;;;;;;18.29;60.61;99707.47;4456230;32;33805;-88
2023/10/04 03:48:15;;;;;;;7.40;2.03;;;;;;;18.62;59.96;99710.66;4458391;32;34203;-88
2023/10/04 03:50:51;;;;;;;5.70;2.08;;;;;;;18.26;60.86;99717.13;4441361;32;32755;-87
2023/10/04 03:53:20;;;;;;;5.43;1.95;;;;;;;18.09;60.90;99733.94;4458272;32;36113;-87
2023/10/04 03:55:48;;;;;;;10.05;2.08;;;;;;;18.29;60.20;99715.34;4457487;32;33602;-86
2023/10/04 03:58:19;;;;;;;5.03;1.55;;;;;;;18.21;60.04;99704.94;4446622;32;33804;-87
2023/10/04 04:00:48;;;;;;;8.10;2.20;;;;;;;18.23;60.11;99728.56;4440919;32;33638;-86
2023/10/04 04:03:16;;;;;;;8.15;1.58;;;;;;;18.08;60.27;99729.56;4453440;32;33083;-87
2023/10/04 04:05:46;;;;;;;6.85;1.80;;;;;;;17.96;60.28;99748.91;4460090;32;32276;-86
2023/10/04 04:08:13;;;;;;;6.60;2.10;;;;;;;17.69;60.73;99751.69;4463749;32;33522;-87
2023/10/04 04:10:42;;;;;;;7.18;1.80;;;;;;;17.91;59.90;99758.53;4450185;32;32958;-88
2023/10/04 04:13:09;;;;;;;6.25;1.65;;;;;;;17.88;59.85;99755.97;4457790;32;34363;-88
2023/10/04 04:15:39;;;;;;;4.62;1.60;;;;;;;17.83;59.32;99755.13;4461151;32;34933;-85
2023/10/04 04:18:16;;;;;;;8.07;1.50;;;;;;;18.11;58.57;99745.28;4456903;32;34671;-87
2023/10/04 04:20:43;;;;;;;6.32;2.05;;;;;;;17.79;59.42;99742.91;4457283;32;34791;-90
2023/10/04 04:23:12;;;;;;;5.78;1.70;;;;;;;18.11;58.09;99757.53;4448441;32;33161;-87
2023/10/04 04:25:43;;;;;;;6.05;1.50;;;;;;;18.05;58.25;99749.72;4457343;32;34169;-87
2023/10/04 04:28:14;;;;;;;5.75;1.75;;;;;;;17.87;58.94;99746.34;4455512;32;35025;-87
2023/10/04 04:30:43;;;;;;;6.30;2.05;;;;;;;17.88;59.16;99749.81;4441572;32;33832;-86
2023/10/04 04:33:14;;;;;;;5.75;1.60;;;;;;;18.03;58.79;99757.56;4435181;32;32909;-88
2023/10/04 04:38:17;;;;;;;4.82;1.73;;;;;;;17.98;58.56;99769.88;4458260;32;32289;-87
2023/10/04 04:40:52;;;;;;;5.18;1.60;;;;;;;17.93;58.84;99766.41;4442948;32;33591;-86
2023/10/04 04:45:50;;;;;;;6.37;1.75;;;;;;;17.84;58.32;99788.34;4442002;32;33558;-86
2023/10/04 04:48:26;;;;;;;7.37;1.85;;;;;;;18.18;57.85;99793.31;4457612;32;34199;-86
2023/10/04 04:50:57;;;;;;;6.18;1.87;;;;;;;17.74;58.78;99787.50;4443164;32;32684;-86
2023/10/04 04:53:27;;;;;;;6.05;2.03;;;;;;;18.11;57.66;99791.66;4443876;32;32997;-89
2023/10/04 04:55:56;;;;;;;7.82;2.08;;;;;;;17.70;58.86;99796.28;4457832;32;34473;-88
2023/10/04 04:58:25;;;;;;;5.20;2.22;;;;;;;17.93;58.62;99790.91;4456680;32;32915;-84
2023/10/04 05:00:56;;;;;;;6.32;1.80;;;;;;;17.82;59.24;99795.34;4454450;32;33661;-85
2023/10/04 05:03:24;;;;;;;6.32;1.67;;;;;;;17.66;59.18;99799.78;4443670;32;33279;-86
2023/10/04 05:05:56;;;;;;;5.55;1.70;;;;;;;17.84;58.83;99797.94;4457125;32;34623;-85
2023/10/04 05:08:26;;;;;;;7.72;1.98;;;;;;;17.79;58.89;99792.75;4442377;32;33669;-86
2023/10/04 05:10:55;;;;;;;10.32;2.20;;;;;;;17.91;58.24;99816.25;4451811;32;33687;-87
2023/10/04 05:13:22;;;;;;;8.30;2.42;;;;;;;17.63;59.21;99814.66;4459306;32;33335;-87
2023/10/04 05:15:50;;;;;;;5.53;1.98;;;;;;;18.03;57.90;99825.78;4460249;32;33891;-87
2023/10/04 05:18:18;;;;;;;5.80;2.08;;;;;;;18.01;57.85;99834.56;4460502;32;33625;-87
2023/10/04 05:20:50;;;;;;;8.20;2.10;;;;;;;17.71;58.36;99831.22;4466716;32;33442;-92
2023/10/04 05:23:19;;;;;;;6.00;1.73;;;;;;;17.86;57.81;99830.31;4452768;32;33426;-91
2023/10/04 05:25:47;;;;;;;8.73;2.12;;;;;;;17.59;58.36;99834.78;4447225;32;33813;-89
2023/10/04 05:28:15;;;;;;;7.87;2.47;;;;;;;17.50;58.47;99840.06;4443512;32;33643;-83
2023/10/04 05:30:45;;;;;;;5.87;1.80;;;;;;;17.40;59.17;99854.97;4463153;32;33780;-91
2023/10/04 05:33:16;;;;;;;10.00;2.10;;;;;;;17.57;58.39;99867.12;4452349;32;32978;-89
2023/10/04 05:35:46;;;;;;;6.68;2.12;;;;;;;17.32;59.44;99854.13;4455126;32;34166;-87
2023/10/04 05:38:14;;;;;;;6.30;1.70;;;;;;;17.67;58.22;99860.97;4443759;32;34056;-89
2023/10/04 05:40:48;;;;;;;7.97;2.15;;;;;;;17.77;57.13;99873.19;4454952;32;34549;-88
2023/10/04 05:43:17;;;;;;;5.30;1.98;;;;;;;17.89;56.73;99883.62;4443200;32;32869;-87
2023/10/04 05:45:47;;;;;;;5.05;2.00;;;;;;;17.61;56.22;99895.06;4441203;32;33860;-86
2023/10/04 05:48:19;;;;;;;6.03;1.83;;;;;;;17.60;55.51;99899.44;4452016;32;35180;-86
2023/10/04 05:50:49;;;;;;;6.37;1.90;;;;;;;17.29;55.99;99898.69;4464053;32;33542;-87
2023/10/04 05:53:19;;;;;;;8.20;1.87;;;;;;;17.52;55.09;99902.09;4465654;32;33626;-90
2023/10/04 05:55:50;;;;;;;8.00;2.00;;;;;;;17.77;52.78;99893.28;4463428;32;33915;-87
2023/10/04 05:58:19;;;;;;;8.23;2.08;;;;;;;17.62;52.58;99902.09;4455534;32;33526;-89
2023/10/04 06:00:55;;;;;;;8.10;1.70;;;;;;;17.36;53.00;99889.06;4454927;32;34212;-86
2023/10/04 06:03:24;;;;;;;5.32;1.85;;;;;;;17.06;53.20;99903.97;4457525;32;33345;-87
2023/10/04 06:05:52;;;;;;;9.88;1.73;;;;;;;17.37;52.37;99917.87;4455858;32;35249;-87
2023/10/04 06:08:21;;;;;;;6.75;1.62;;;;;;;17.27;52.23;99921.38;4456756;32;34007;-94
2023/10/04 06:10:53;;;;;;;4.87;1.55;;;;;;;17.55;51.82;99930.06;4447461;32;32460;-88
2023/10/04 06:13:22;;;;;;;5.10;1.80;;;;;;;17.26;51.61;99931.00;4455626;32;33318;-91
2023/10/04 06:15:56;;;;;;;5.87;1.50;;;;;;;17.35;51.20;99934.47;4459055;32;32486;-92
2023/10/04 06:18:30;;;;;;;8.88;1.62;;;;;;;17.21;50.87;99960.72;4444639;32;34110;-90
2023/10/04 06:21:00;;;;;;;5.70;1.55;;;;;;;17.16;50.80;99960.75;4467911;32;33462;-87
2023/10/04 06:23:31;;;;;;;6.45;1.80;;;;;;;17.06;51.30;99974.72;4460470;32;33530;-86
2023/10/04 06:25:59;;;;;;;4.15;1.70;;;;;;;16.81;51.27;99988.69;4442923;32;34513;-87
2023/10/04 06:28:28;;;;;;;5.62;1.73;;;;;;;17.14;50.92;99975.59;4465269;32;34587;-87
2023/10/04 06:30:56;;;;;;;7.20;1.62;;;;;;;17.28;50.87;99975.56;4450196;32;33949;-88
2023/10/04 06:33:25;;;;;;;5.55;1.60;;;;;;;17.13;50.54;99980.84;4456799;32;33443;-89
2023/10/04 06:35:53;;;;;;;5.12;1.80;;;;;;;16.86;51.35;100003.53;4451657;32;33630;-89
2023/10/04 06:38:20;;;;;;;4.32;1.45;;;;;;;16.91;51.14;99980.84;4440909;32;33706;-89
2023/10/04 06:40:53;;;;;;;5.10;1.52;;;;;;;17.07;51.31;99986.06;4451901;32;34508;-87
2023/10/04 06:43:21;;;;;;;4.45;1.65;;;;;;;16.97;51.60;99993.94;4452327;32;34253;-92
2023/10/04 06:45:49;;;;;;;6.32;1.60;;;;;;;17.21;50.55;100003.53;4460434;32;33769;-89
2023/10/04 06:48:17;;;;;;;4.87;1.85;;;;;;;17.18;50.92;99997.41;4457201;32;34690;-86
2023/10/04 06:50:45;;;;;;;4.28;1.45;;;;;;;17.21;51.05;99990.44;4460379;32;34240;-91
2023/10/04 06:53:13;;;;;;;5.40;1.30;;;;;;;17.25;50.61;99989.53;4456623;32;35186;-87
2023/10/04 06:55:41;;;;;;;5.75;1.58;;;;;;;17.18;50.70;99989.56;4461333;32;34030;-87
2023/10/04 06:58:10;;;;;;;6.68;1.75;;;;;;;17.27;50.71;99984.28;4447529;32;32801;-86
2023/10/04 07:00:40;;;;;;;5.80;2.15;;;;;;;17.12;50.74;99987.81;4459329;32;34019;-86
2023/10/04 07:03:09;;;;;;;4.62;1.95;;;;;;;17.03;50.80;99978.19;4455293;32;33327;-85
2023/10/04 07:05:39;;;;;;;4.40;1.60;;;;;;;17.33;50.67;99981.66;4446532;32;33606;-86
2023/10/04 07:08:13;;;;;;;5.57;2.05;;;;;;;17.15;50.74;99986.94;4448906;32;33996;-84
2023/10/04 07:10:43;;;;;;;6.50;1.40;;;;;;;17.20;51.28;99993.94;4450724;32;34482;-84
2023/10/04 07:13:11;;;;;;;4.22;1.52;;;;;;;17.25;50.36;100007.03;4454699;32;34198;-86
2023/10/04 07:15:43;;;;;;;5.22;1.90;;;;;;;17.33;50.91;100015.75;4467865;32;33856;-86
2023/10/04 07:18:11;;;;;;;6.07;1.62;;;;;;;17.50;49.90;100019.22;4462355;32;34098;-85
2023/10/04 07:20:40;;;;;;;4.60;1.20;;;;;;;17.09;52.03;100010.53;4446399;32;34127;-86
2023/10/04 07:23:10;;;;;;;4.18;1.30;;;;;;;17.22;51.32;100004.41;4453391;32;33379;-86
2023/10/04 07:25:41;;;;;;;5.95;1.65;;;;;;;17.13;51.21;99993.94;4443338;32;34533;-86
2023/10/04 07:28:09;;;;;;;6.12;1.27;;;;;;;17.12;51.58;100000.03;4453449;32;37044;-86
2023/10/04 07:30:39;;;;;;;5.18;1.73;;;;;;;17.09;51.90;99992.19;4453090;32;33395;-85
2023/10/04 07:33:08;;;;;;;4.40;1.60;;;;;;;17.00;52.46;99990.44;4456146;32;33422;-85
2023/10/04 07:35:37;;;;;;;6.30;1.40;;;;;;;17.25;51.70;100007.03;4438287;32;33970;-86
2023/10/04 07:38:05;;;;;;;5.60;1.48;;;;;;;17.56;51.13;100034.06;4451786;32;34400;-92
2023/10/04 07:40:34;;;;;;;6.55;1.70;;;;;;;17.52;50.87;100062.03;4453735;32;33822;-85
2023/10/04 07:43:01;;;;;;;9.15;1.58;;;;;;;17.19;51.89;100076.00;4443667;32;33784;-90
2023/10/04 07:45:30;;;;;;;5.28;1.50;;;;;;;17.11;52.37;100080.38;4452237;32;34669;-88
2023/10/04 07:48:01;;;;;;;4.55;1.37;;;;;;;16.93;52.34;100062.91;4468276;32;34278;-88
2023/10/04 07:50:28;;;;;;;4.75;1.48;;;;;;;17.33;51.84;100047.19;4453206;32;33792;-87
2023/10/04 07:53:04;;;;;;;7.90;1.92;;;;;;;17.28;52.01;100030.59;4467184;32;32884;-87
2023/10/04 07:55:34;;;;;;;5.15;1.60;;;;;;;17.53;51.44;100039.31;4440759;32;32460;-87
2023/10/04 07:58:03;;;;;;;4.93;1.50;;;;;;;17.73;51.13;100048.03;4451738;32;34774;-87
2023/10/04 08:00:34;;;;;;;6.03;1.30;;;;;;;17.66;51.60;100055.91;4452767;32;33503;-87
2023/10/04 08:03:03;;;;;;;4.55;1.50;;;;;;;17.59;52.01;100049.78;4453321;32;33809;-88
2023/10/04 08:05:32;;;;;;;7.20;1.80;;;;;;;17.56;51.18;100059.41;4453555;32;33564;-86
2023/10/04 08:08:02;;;;;;;5.57;1.30;;;;;;;17.48;51.81;100055.03;4455096;32;35092;-93
2023/10/04 08:10:34;;;;;;;7.40;1.90;;;;;;;17.78;51.17;100062.91;4468431;32;34187;-85
2023/10/04 08:13:03;;;;;;;4.68;1.48;;;;;;;17.91;51.06;100065.47;4467857;32;34146;-88
2023/10/04 08:15:32;;;;;;;2.75;1.45;;;;;;;17.55;51.66;100071.66;4467505;32;33539;-87
2023/10/04 08:18:01;;;;;;;4.37;1.77;;;;;;;17.64;51.34;100073.38;4453153;32;34523;-87
2023/10/04 08:20:31;;;;;;;4.95;1.70;;;;;;;18.04;50.33;100065.47;4467619;32;33778;-88
2023/10/04 08:23:02;;;;;;;7.07;1.95;;;;;;;18.03;50.20;100074.19;4467096;32;33117;-87
2023/10/04 08:25:32;;;;;;;4.90;1.48;;;;;;;17.93;51.05;100070.75;4467032;32;33348;-87
2023/10/04 08:28:01;;;;;;;7.53;2.03;;;;;;;17.84;51.42;100076.88;4453108;32;34285;-87
2023/10/04 08:30:30;;;;;;;5.57;1.58;;;;;;;17.66;52.30;100079.50;4452735;32;34054;-88
2023/10/04 08:32:59;;;;;;;5.07;1.80;;;;;;;17.72;51.73;100087.34;4467465;32;33300;-88
2023/10/04 08:35:28;;;;;;;5.22;1.37;;;;;;;17.67;51.72;100087.34;4453083;32;33841;-87
2023/10/04 08:37:58;;;;;;;4.93;1.62;;;;;;;17.88;51.21;100089.13;4453245;32;33630;-87
2023/10/04 08:40:28;;;;;;;7.62;1.67;;;;;;;18.03;51.47;100082.06;4452997;32;32929;-87
2023/10/04 08:42:57;;;;;;;5.10;1.55;;;;;;;17.73;52.03;100081.25;4468096;32;33983;-87
2023/10/04 08:45:29;;;;;;;4.95;1.65;;;;;;;18.25;50.85;100086.34;4453973;32;33578;-87
2023/10/04 08:47:58;;;;;;;6.28;1.70;;;;;;;18.08;51.10;100090.81;4455712;32;34478;-88
2023/10/04 08:50:54;;;;;;;6.15;1.67;;;;;;;18.14;51.70;100099.50;4469935;32;33868;-87
2023/10/04 08:53:22;;;;;;;5.32;1.55;;;;;;;18.08;51.54;100109.19;4462102;32;33484;-88
2023/10/04 08:55:54;;;;;;;6.00;1.60;;;;;;;18.04;50.76;100102.19;4469345;32;33440;-87
2023/10/04 08:58:22;;;;;;;9.05;2.17;;;;;;;17.58;51.89;100104.84;4454892;32;33696;-87
2023/10/04 09:00:51;;;;;;;6.07;1.70;;;;;;;18.36;50.30;100102.94;4469038;32;33927;-87
2023/10/04 09:03:22;;;;;;;5.12;1.50;;;;;;;17.73;52.03;100103.09;4455835;32;32968;-88
2023/10/04 09:05:54;;;;;;;5.05;1.37;;;;;;;17.38;52.29;100094.37;4469535;32;33839;-87
2023/10/04 09:08:24;;;;;;;9.75;2.40;;;;;;;17.70;51.39;100086.50;4456672;32;34844;-87
2023/10/04 09:10:53;;;;;;;4.60;1.70;;;;;;;17.85;51.21;100088.25;4471049;32;35085;-88
2023/10/04 09:13:22;;;;;;;6.50;1.80;;;;;;;17.64;52.25;100087.34;4454842;32;33397;-88
2023/10/04 09:15:50;;;;;;;7.10;1.77;;;;;;;18.07;51.07;100091.66;4455068;32;33443;-87
2023/10/04 09:18:28;;;;;;;7.12;1.60;;;;;;;18.19;50.86;100095.16;4455899;32;34968;-86
2023/10/04 09:20:56;;;;;;;7.55;1.60;;;;;;;18.19;50.98;100097.78;4454817;32;33089;-86
2023/10/04 09:23:23;;;;;;;5.75;1.87;;;;;;;18.36;50.19;100096.81;4455580;32;33181;-86
2023/10/04 09:25:54;;;;;;;5.75;1.37;;;;;;;18.41;50.69;100095.03;4469229;32;33713;-87
2023/10/04 09:28:39;;;;;;;8.07;1.75;;;;;;;18.43;50.49;100099.41;4469306;32;34373;-86
2023/10/04 09:31:12;;;;;;;5.95;1.50;;;;;;;18.80;49.37;100109.78;4468994;32;33564;-88
2023/10/04 09:33:40;;;;;;;7.22;1.98;;;;;;;18.63;49.35;100116.84;4455134;32;33097;-88
2023/10/04 09:36:10;;;;;;;4.20;1.55;;;;;;;18.85;48.93;100112.38;4469804;32;35041;-88
2023/10/04 09:38:39;;;;;;;4.75;1.62;;;;;;;18.60;49.55;100111.59;4469941;32;34109;-87
2023/10/04 09:41:10;;;;;;;6.40;1.50;;;;;;;18.56;49.54;100102.88;4456009;32;33556;-87
2023/10/04 09:43:39;;;;;;;5.15;1.35;;;;;;;18.65;49.65;100104.59;4469388;32;34113;-87
2023/10/04 09:46:12;;;;;;;5.37;1.62;;;;;;;19.33;47.74;100111.19;4469277;32;34347;-88
2023/10/04 09:48:49;;;;;;;5.15;1.50;;;;;;;19.65;47.11;100121.44;4470311;32;33293;-87
2023/10/04 09:51:19;;;;;;;6.68;1.75;;;;;;;19.99;47.09;100112.34;4457294;32;34252;-87
2023/10/04 09:53:48;;;;;;;5.82;1.70;;;;;;;20.04;45.20;100126.31;4454525;32;33710;-88
2023/10/04 09:56:16;;;;;;;7.72;1.90;;;;;;;20.26;44.82;100132.25;4468731;32;34314;-86
2023/10/04 09:58:50;;;;;;;4.53;1.60;;;;;;;20.48;44.40;100132.88;4468786;32;33543;-87
2023/10/04 10:01:22;;;;;;;4.30;1.48;;;;;;;20.53;44.95;100125.81;4468565;32;33759;-87
2023/10/04 10:03:56;;;;;;;6.07;1.73;;;;;;;20.52;44.61;100134.59;4454555;32;33217;-87
2023/10/04 10:06:26;;;;;;;6.03;1.85;;;;;;;20.37;45.21;100119.81;4454837;32;33705;-87
2023/10/04 10:09:00;;;;;;;4.20;1.33;;;;;;;20.41;45.38;100129.44;4453969;32;32798;-89
2023/10/04 10:11:29;;;;;;;5.55;1.35;;;;;;;20.81;43.98;100118.44;4454064;32;34460;-89
2023/10/04 10:13:58;;;;;;;5.65;1.30;;;;;;;21.04;43.79;100129.50;4454387;32;34132;-88
2023/10/04 10:16:26;;;;;;;4.07;1.25;;;;;;;20.87;43.52;100132.41;4454062;32;34573;-88
2023/10/04 10:18:57;;;;;;;12.75;1.75;;;;;;;20.79;43.62;100128.97;4468553;32;34074;-87
2023/10/04 10:22:03;;;;;;;5.35;2.00;;;;;;;20.83;43.59;100125.41;4455830;32;33471;-87
2023/10/04 10:24:31;;;;;;;5.32;1.30;;;;;;;20.67;43.44;100130.91;4469468;32;33152;-88
2023/10/04 10:27:08;;;;;;;6.22;1.70;;;;;;;21.14;42.68;100124.97;4468873;32;33515;-87
2023/10/04 10:29:38;;;;;;;5.05;1.55;;;;;;;20.62;43.44;100137.09;4455124;32;33789;-88
2023/10/04 10:32:17;;;;;;;5.53;1.35;;;;;;;20.81;42.72;100134.25;4456042;32;33950;-87
2023/10/04 10:34:47;;;;;;;5.85;1.48;;;;;;;20.09;44.40;100130.69;4441944;32;32988;-88
2023/10/04 10:37:22;;;;;;;5.15;1.62;;;;;;;19.65;44.78;100124.06;4441598;32;34420;-87
2023/10/04 10:39:51;;;;;;;6.68;1.73;;;;;;;20.10;43.56;100136.81;4454373;32;35515;-94
2023/10/04 10:42:19;;;;;;;6.07;2.00;;;;;;;20.02;43.85;100129.00;4468439;32;33889;-95
2023/10/04 10:44:48;;;;;;;5.55;1.37;;;;;;;19.93;43.64;100122.06;4441561;32;32371;-87
2023/10/04 10:47:26;;;;;;;4.85;1.55;;;;;;;20.30;42.94;100128.69;4454533;32;33616;-86
2023/10/04 10:50:03;;;;;;;6.87;1.67;;;;;;;20.27;43.32;100120.84;4468177;32;33670;-87
2023/10/04 10:52:33;;;;;;;5.28;1.48;;;;;;;20.24;42.87;100127.00;4468800;32;33727;-86
2023/10/04 10:55:05;;;;;;;6.57;1.65;;;;;;;20.50;43.83;100126.72;4468626;32;33311;-87
2023/10/04 10:57:36;;;;;;;4.53;1.40;;;;;;;20.35;42.17;100126.88;4454734;32;34395;-87
2023/10/04 11:02:48;;;;;;;5.53;1.90;;;;;;;19.97;42.72;100120.28;4461066;32;34545;-87
2023/10/04 11:05:17;;;;;;;4.15;1.50;;;;;;;20.33;42.02;100121.63;4469720;32;33493;-87
2023/10/04 11:07:46;;;;;;;5.03;1.62;;;;;;;20.56;42.67;100128.41;4468834;32;33959;-87
2023/10/04 11:10:17;;;;;;;4.78;1.60;;;;;;;20.60;42.54;100117.78;4468925;32;34121;-87
2023/10/04 11:12:46;;;;;;;5.18;1.37;;;;;;;20.86;41.08;100117.44;4469341;32;33949;-86
2023/10/04 11:15:17;;;;;;;5.37;1.80;;;;;;;20.77;40.76;100116.72;4468095;32;32724;-88
2023/10/04 11:17:46;;;;;;;4.68;1.33;;;;;;;20.98;41.49;100112.91;4455578;32;34184;-86
2023/10/04 11:20:17;;;;;;;7.50;1.30;;;;;;;20.74;40.71;100108.84;4468354;32;34195;-87
2023/10/04 11:22:46;;;;;;;5.32;2.00;;;;;;;20.77;40.18;100107.06;4457104;32;33797;-86
2023/10/04 11:25:14;;;;;;;6.43;1.70;;;;;;;20.91;41.06;100106.88;4468475;32;33090;-86
2023/10/04 11:27:43;;;;;;;6.87;1.87;;;;;;;20.97;39.36;100104.13;4467761;32;33662;-87
2023/10/04 11:30:23;;;;;;;5.18;1.62;;;;;;;20.94;39.81;100100.66;4453918;32;34718;-87
2023/10/04 11:32:59;;;;;;;5.95;1.95;;;;;;;21.25;38.55;100090.50;4467816;32;34630;-87
2023/10/04 11:35:32;;;;;;;5.28;1.40;;;;;;;20.92;40.01;100091.91;4468266;32;33074;-87
2023/10/04 11:38:05;;;;;;;4.07;1.37;;;;;;;20.65;40.38;100096.69;4454475;32;35271;-86
2023/10/04 11:40:38;;;;;;;5.68;1.40;;;;;;;20.63;39.47;100099.31;4469505;32;34094;-87
2023/10/04 11:43:08;;;;;;;4.82;1.67;;;;;;;20.50;38.91;100091.63;4454274;32;33700;-86
2023/10/04 11:45:36;;;;;;;2.97;1.25;;;;;;;20.45;38.85;100096.88;4468424;32;32701;-94
2023/10/04 11:48:10;;;;;;;4.25;1.55;;;;;;;20.45;39.34;100098.66;4468336;32;34330;-88
2023/10/04 11:50:42;;;;;;;3.87;1.33;;;;;;;20.44;38.95;100086.38;4454521;32;33786;-86